sensor_id;sensor_type;location;lat;lon;timestamp;temperature;humidity
45729;DHT22;31439;53.512;10.206;2022-12-26T00:01:45;7.80;99.90
45729;DHT22;31439;53.512;10.206;2022-12-26T00:04:11;7.80;99.90
45729;DHT22;31439;53.512;10.206;2022-12-26T00:06:37;7.80;99.90
45729;DHT22;31439;53.512;10.206;2022-12-26T00:09:04;7.70;99.90
45729;DHT22;31439;53.512;10.206;2022-12-26T00:11:30;7.60;99.90
45729;DHT22;31439;53.512;10.206;2022-12-26T00:14:04;7.70;99.90
45729;DHT22;31439;53.512;10.206;2022-12-26T00:16:30;7.70;99.90
45729;DHT22;31439;53.512;10.206;2022-12-26T00:18:56;7.70;99.90
45729;DHT22;31439;53.512;10.206;2022-12-26T00:21:22;7.70;99.90
45729;DHT22;31439;53.512;10.206;2022-12-26T00:23:53;7.70;99.90
45729;DHT22;31439;53.512;10.206;2022-12-26T00:26:21;7.70;99.90
45729;DHT22;31439;53.512;10.206;2022-12-26T00:28:47;7.70;99.90
45729;DHT22;31439;53.512;10.206;2022-12-26T00:31:15;7.70;99.90
45729;DHT22;31439;53.512;10.206;2022-12-26T00:33:41;7.70;99.90
45729;DHT22;31439;53.512;10.206;2022-12-26T00:36:30;7.80;99.90
45729;DHT22;31439;53.512;10.206;2022-12-26T00:38:56;7.70;99.90
45729;DHT22;31439;53.512;10.206;2022-12-26T00:41:22;7.60;99.90
45729;DHT22;31439;53.512;10.206;2022-12-26T00:43:48;7.60;99.90
45729;DHT22;31439;53.512;10.206;2022-12-26T00:46:15;7.70;99.90
45729;DHT22;31439;53.512;10.206;2022-12-26T00:48:41;7.60;99.90
45729;DHT22;31439;53.512;10.206;2022-12-26T00:51:07;7.60;99.90
45729;DHT22;31439;53.512;10.206;2022-12-26T00:53:33;7.70;99.90
45729;DHT22;31439;53.512;10.206;2022-12-26T00:55:59;7.50;99.90
45729;DHT22;31439;53.512;10.206;2022-12-26T00:58:25;7.50;99.90
45729;DHT22;31439;53.512;10.206;2022-12-26T01:00:50;7.50;99.90
45729;DHT22;31439;53.512;10.206;2022-12-26T01:03:17;7.50;99.90
45729;DHT22;31439;53.512;10.206;2022-12-26T01:05:48;7.50;99.90
45729;DHT22;31439;53.512;10.206;2022-12-26T01:08:14;7.50;99.90
45729;DHT22;31439;53.512;10.206;2022-12-26T01:10:42;7.50;99.90
45729;DHT22;31439;53.512;10.206;2022-12-26T01:13:07;7.50;99.90
45729;DHT22;31439;53.512;10.206;2022-12-26T01:15:33;7.50;99.90
45729;DHT22;31439;53.512;10.206;2022-12-26T01:17:59;7.50;99.90
45729;DHT22;31439;53.512;10.206;2022-12-26T01:20:26;7.50;99.90
45729;DHT22;31439;53.512;10.206;2022-12-26T01:22:52;7.60;99.90
45729;DHT22;31439;53.512;10.206;2022-12-26T01:25:18;7.50;99.90
45729;DHT22;31439;53.512;10.206;2022-12-26T01:27:43;7.50;99.90
45729;DHT22;31439;53.512;10.206;2022-12-26T01:30:09;7.60;99.90
45729;DHT22;31439;53.512;10.206;2022-12-26T01:32:35;7.50;99.90
45729;DHT22;31439;53.512;10.206;2022-12-26T01:35:01;7.50;99.90
45729;DHT22;31439;53.512;10.206;2022-12-26T01:37:27;7.60;99.90
45729;DHT22;31439;53.512;10.206;2022-12-26T01:39:52;7.70;99.90
45729;DHT22;31439;53.512;10.206;2022-12-26T01:42:20;7.50;99.90
45729;DHT22;31439;53.512;10.206;2022-12-26T01:45:06;7.50;99.90
45729;DHT22;31439;53.512;10.206;2022-12-26T01:47:45;7.50;99.90
45729;DHT22;31439;53.512;10.206;2022-12-26T01:50:30;7.60;99.90
45729;DHT22;31439;53.512;10.206;2022-12-26T01:53:01;7.50;99.90
45729;DHT22;31439;53.512;10.206;2022-12-26T01:55:29;7.60;99.90
45729;DHT22;31439;53.512;10.206;2022-12-26T01:58:04;7.50;99.90
45729;DHT22;31439;53.512;10.206;2022-12-26T02:00:32;7.70;99.90
45729;DHT22;31439;53.512;10.206;2022-12-26T02:02:58;7.50;99.90
45729;DHT22;31439;53.512;10.206;2022-12-26T02:05:43;7.50;99.90
45729;DHT22;31439;53.512;10.206;2022-12-26T02:08:18;7.50;99.90
45729;DHT22;31439;53.512;10.206;2022-12-26T02:10:52;7.50;99.90
45729;DHT22;31439;53.512;10.206;2022-12-26T02:13:19;7.80;99.90
45729;DHT22;31439;53.512;10.206;2022-12-26T02:15:45;7.70;99.90
45729;DHT22;31439;53.512;10.206;2022-12-26T02:18:11;7.50;99.90
45729;DHT22;31439;53.512;10.206;2022-12-26T02:31:52;7.50;99.90
45729;DHT22;31439;53.512;10.206;2022-12-26T02:40:20;7.60;99.90
45729;DHT22;31439;53.512;10.206;2022-12-26T02:42:58;7.70;99.90
45729;DHT22;31439;53.512;10.206;2022-12-26T02:45:32;7.60;99.90
45729;DHT22;31439;53.512;10.206;2022-12-26T02:54:25;7.80;99.90
45729;DHT22;31439;53.512;10.206;2022-12-26T02:57:16;7.70;99.90
45729;DHT22;31439;53.512;10.206;2022-12-26T03:00:05;7.60;99.90
45729;DHT22;31439;53.512;10.206;2022-12-26T03:03:09;7.60;99.90
45729;DHT22;31439;53.512;10.206;2022-12-26T03:06:02;7.70;99.90
45729;DHT22;31439;53.512;10.206;2022-12-26T03:09:01;7.70;99.90
45729;DHT22;31439;53.512;10.206;2022-12-26T03:11:49;7.60;99.90
45729;DHT22;31439;53.512;10.206;2022-12-26T03:14:43;7.90;99.90
45729;DHT22;31439;53.512;10.206;2022-12-26T03:17:13;7.70;99.90
45729;DHT22;31439;53.512;10.206;2022-12-26T03:22:33;7.80;99.90
45729;DHT22;31439;53.512;10.206;2022-12-26T03:25:04;7.80;99.90
45729;DHT22;31439;53.512;10.206;2022-12-26T03:27:49;7.80;99.90
45729;DHT22;31439;53.512;10.206;2022-12-26T03:30:15;7.80;99.90
45729;DHT22;31439;53.512;10.206;2022-12-26T03:32:59;7.80;99.90
45729;DHT22;31439;53.512;10.206;2022-12-26T03:35:26;7.80;99.90
45729;DHT22;31439;53.512;10.206;2022-12-26T03:38:12;7.80;99.90
45729;DHT22;31439;53.512;10.206;2022-12-26T03:40:48;7.90;99.90
45729;DHT22;31439;53.512;10.206;2022-12-26T03:46:41;7.90;99.90
45729;DHT22;31439;53.512;10.206;2022-12-26T03:49:33;7.90;99.90
45729;DHT22;31439;53.512;10.206;2022-12-26T03:55:33;7.90;99.90
45729;DHT22;31439;53.512;10.206;2022-12-26T03:58:28;8.00;99.90
45729;DHT22;31439;53.512;10.206;2022-12-26T04:01:20;7.90;99.90
45729;DHT22;31439;53.512;10.206;2022-12-26T04:04:09;8.00;99.90
45729;DHT22;31439;53.512;10.206;2022-12-26T04:07:00;7.90;99.90
45729;DHT22;31439;53.512;10.206;2022-12-26T04:10:35;7.80;99.90
45729;DHT22;31439;53.512;10.206;2022-12-26T04:13:17;7.90;99.90
45729;DHT22;31439;53.512;10.206;2022-12-26T04:16:29;7.80;99.90
45729;DHT22;31439;53.512;10.206;2022-12-26T04:24:57;7.90;99.90
45729;DHT22;31439;53.512;10.206;2022-12-26T04:27:42;7.80;99.90
45729;DHT22;31439;53.512;10.206;2022-12-26T04:30:26;8.00;99.90
45729;DHT22;31439;53.512;10.206;2022-12-26T04:33:18;8.00;99.90
45729;DHT22;31439;53.512;10.206;2022-12-26T04:36:14;7.90;99.90
45729;DHT22;31439;53.512;10.206;2022-12-26T04:39:04;8.00;99.90
45729;DHT22;31439;53.512;10.206;2022-12-26T04:41:50;8.00;99.90
45729;DHT22;31439;53.512;10.206;2022-12-26T04:44:36;7.90;99.90
45729;DHT22;31439;53.512;10.206;2022-12-26T04:47:02;8.00;99.90
45729;DHT22;31439;53.512;10.206;2022-12-26T04:49:27;8.00;99.90
45729;DHT22;31439;53.512;10.206;2022-12-26T04:52:13;7.90;99.90
45729;DHT22;31439;53.512;10.206;2022-12-26T04:54:39;8.00;99.90
45729;DHT22;31439;53.512;10.206;2022-12-26T04:57:05;8.00;99.90
45729;DHT22;31439;53.512;10.206;2022-12-26T04:59:31;8.00;99.90
45729;DHT22;31439;53.512;10.206;2022-12-26T05:01:57;8.10;99.90
45729;DHT22;31439;53.512;10.206;2022-12-26T05:04:41;8.00;99.90
45729;DHT22;31439;53.512;10.206;2022-12-26T05:07:32;8.00;99.90
45729;DHT22;31439;53.512;10.206;2022-12-26T05:10:24;8.00;99.90
45729;DHT22;31439;53.512;10.206;2022-12-26T05:12:51;8.10;99.90
45729;DHT22;31439;53.512;10.206;2022-12-26T05:15:17;8.10;99.90
45729;DHT22;31439;53.512;10.206;2022-12-26T05:17:43;8.20;99.90
45729;DHT22;31439;53.512;10.206;2022-12-26T05:20:28;8.10;99.90
45729;DHT22;31439;53.512;10.206;2022-12-26T05:23:20;8.20;99.90
45729;DHT22;31439;53.512;10.206;2022-12-26T05:26:18;8.00;99.90
45729;DHT22;31439;53.512;10.206;2022-12-26T05:29:04;8.10;99.90
45729;DHT22;31439;53.512;10.206;2022-12-26T05:31:30;8.10;99.90
45729;DHT22;31439;53.512;10.206;2022-12-26T05:33:55;8.00;99.90
45729;DHT22;31439;53.512;10.206;2022-12-26T05:36:34;8.10;99.90
45729;DHT22;31439;53.512;10.206;2022-12-26T05:39:00;8.10;99.90
45729;DHT22;31439;53.512;10.206;2022-12-26T05:41:26;8.10;99.90
45729;DHT22;31439;53.512;10.206;2022-12-26T05:43:51;8.20;99.90
45729;DHT22;31439;53.512;10.206;2022-12-26T05:46:17;8.20;99.90
45729;DHT22;31439;53.512;10.206;2022-12-26T05:48:43;8.20;99.90
45729;DHT22;31439;53.512;10.206;2022-12-26T05:51:08;8.20;99.90
45729;DHT22;31439;53.512;10.206;2022-12-26T05:53:34;8.20;99.90
45729;DHT22;31439;53.512;10.206;2022-12-26T05:56:05;8.20;99.90
45729;DHT22;31439;53.512;10.206;2022-12-26T05:58:31;8.20;99.90
45729;DHT22;31439;53.512;10.206;2022-12-26T06:01:17;8.30;99.90
45729;DHT22;31439;53.512;10.206;2022-12-26T06:03:46;8.30;99.90
45729;DHT22;31439;53.512;10.206;2022-12-26T06:06:13;8.30;99.90
45729;DHT22;31439;53.512;10.206;2022-12-26T06:08:39;8.30;99.90
45729;DHT22;31439;53.512;10.206;2022-12-26T06:11:06;8.20;99.90
45729;DHT22;31439;53.512;10.206;2022-12-26T06:13:33;8.20;99.90
45729;DHT22;31439;53.512;10.206;2022-12-26T06:15:58;8.30;99.90
45729;DHT22;31439;53.512;10.206;2022-12-26T06:18:24;8.40;99.90
45729;DHT22;31439;53.512;10.206;2022-12-26T06:20:50;8.30;99.90
45729;DHT22;31439;53.512;10.206;2022-12-26T06:23:16;8.30;99.90
45729;DHT22;31439;53.512;10.206;2022-12-26T06:25:41;8.30;99.90
45729;DHT22;31439;53.512;10.206;2022-12-26T06:28:07;8.30;99.90
45729;DHT22;31439;53.512;10.206;2022-12-26T06:30:32;8.30;99.90
45729;DHT22;31439;53.512;10.206;2022-12-26T06:32:58;8.20;99.90
45729;DHT22;31439;53.512;10.206;2022-12-26T06:35:24;8.30;99.90
45729;DHT22;31439;53.512;10.206;2022-12-26T06:37:49;8.20;99.90
45729;DHT22;31439;53.512;10.206;2022-12-26T06:40:15;8.20;99.90
45729;DHT22;31439;53.512;10.206;2022-12-26T06:42:40;8.30;99.90
45729;DHT22;31439;53.512;10.206;2022-12-26T06:45:06;8.40;99.90
45729;DHT22;31439;53.512;10.206;2022-12-26T06:47:32;8.30;99.90
45729;DHT22;31439;53.512;10.206;2022-12-26T06:49:58;8.40;99.90
45729;DHT22;31439;53.512;10.206;2022-12-26T06:52:23;8.30;99.90
45729;DHT22;31439;53.512;10.206;2022-12-26T06:54:49;8.30;99.90
45729;DHT22;31439;53.512;10.206;2022-12-26T06:57:14;8.30;99.90
45729;DHT22;31439;53.512;10.206;2022-12-26T06:59:40;8.40;99.90
45729;DHT22;31439;53.512;10.206;2022-12-26T07:02:07;8.50;99.90
45729;DHT22;31439;53.512;10.206;2022-12-26T07:04:33;8.30;99.90
45729;DHT22;31439;53.512;10.206;2022-12-26T07:06:59;8.30;99.90
45729;DHT22;31439;53.512;10.206;2022-12-26T07:09:24;8.50;99.90
45729;DHT22;31439;53.512;10.206;2022-12-26T07:11:50;8.50;99.90
45729;DHT22;31439;53.512;10.206;2022-12-26T07:14:16;8.40;99.90
45729;DHT22;31439;53.512;10.206;2022-12-26T07:16:43;8.40;99.90
45729;DHT22;31439;53.512;10.206;2022-12-26T07:19:10;8.40;99.90
45729;DHT22;31439;53.512;10.206;2022-12-26T07:21:36;8.40;99.90
45729;DHT22;31439;53.512;10.206;2022-12-26T07:24:02;8.40;99.90
45729;DHT22;31439;53.512;10.206;2022-12-26T07:26:28;8.40;99.90
45729;DHT22;31439;53.512;10.206;2022-12-26T07:28:58;8.50;99.90
45729;DHT22;31439;53.512;10.206;2022-12-26T07:31:25;8.40;99.90
45729;DHT22;31439;53.512;10.206;2022-12-26T07:33:53;8.50;99.90
45729;DHT22;31439;53.512;10.206;2022-12-26T07:36:20;8.40;99.90
45729;DHT22;31439;53.512;10.206;2022-12-26T07:38:45;8.50;99.90
45729;DHT22;31439;53.512;10.206;2022-12-26T07:41:11;8.50;99.90
45729;DHT22;31439;53.512;10.206;2022-12-26T07:43:56;8.60;99.90
45729;DHT22;31439;53.512;10.206;2022-12-26T07:46:22;8.50;99.90
45729;DHT22;31439;53.512;10.206;2022-12-26T07:48:47;8.50;99.90
45729;DHT22;31439;53.512;10.206;2022-12-26T07:51:13;8.50;99.90
45729;DHT22;31439;53.512;10.206;2022-12-26T07:53:39;8.60;99.90
45729;DHT22;31439;53.512;10.206;2022-12-26T07:56:05;8.50;99.90
45729;DHT22;31439;53.512;10.206;2022-12-26T07:58:31;8.50;99.90
45729;DHT22;31439;53.512;10.206;2022-12-26T08:01:01;8.70;99.90
45729;DHT22;31439;53.512;10.206;2022-12-26T08:03:27;8.60;99.90
45729;DHT22;31439;53.512;10.206;2022-12-26T08:05:53;8.60;99.90
45729;DHT22;31439;53.512;10.206;2022-12-26T08:08:18;8.70;99.90
45729;DHT22;31439;53.512;10.206;2022-12-26T08:10:44;8.60;99.90
45729;DHT22;31439;53.512;10.206;2022-12-26T08:13:09;8.70;99.90
45729;DHT22;31439;53.512;10.206;2022-12-26T08:15:38;8.80;99.90
45729;DHT22;31439;53.512;10.206;2022-12-26T08:18:05;8.80;99.90
45729;DHT22;31439;53.512;10.206;2022-12-26T08:20:31;8.70;99.90
45729;DHT22;31439;53.512;10.206;2022-12-26T08:22:56;8.80;99.90
45729;DHT22;31439;53.512;10.206;2022-12-26T08:25:22;8.70;99.90
45729;DHT22;31439;53.512;10.206;2022-12-26T08:27:47;8.60;99.90
45729;DHT22;31439;53.512;10.206;2022-12-26T08:30:13;8.80;99.90
45729;DHT22;31439;53.512;10.206;2022-12-26T08:32:39;8.70;99.90
45729;DHT22;31439;53.512;10.206;2022-12-26T08:35:05;8.70;99.90
45729;DHT22;31439;53.512;10.206;2022-12-26T08:37:30;8.70;99.90
45729;DHT22;31439;53.512;10.206;2022-12-26T08:39:56;8.70;99.90
45729;DHT22;31439;53.512;10.206;2022-12-26T08:42:21;8.70;99.90
45729;DHT22;31439;53.512;10.206;2022-12-26T08:44:50;8.70;99.90
45729;DHT22;31439;53.512;10.206;2022-12-26T08:47:16;8.70;99.90
45729;DHT22;31439;53.512;10.206;2022-12-26T08:49:42;8.80;99.90
45729;DHT22;31439;53.512;10.206;2022-12-26T08:52:11;8.80;99.90
45729;DHT22;31439;53.512;10.206;2022-12-26T08:54:36;8.90;99.90
45729;DHT22;31439;53.512;10.206;2022-12-26T08:57:05;8.80;99.90
45729;DHT22;31439;53.512;10.206;2022-12-26T08:59:30;8.70;99.90
45729;DHT22;31439;53.512;10.206;2022-12-26T09:01:56;8.70;99.90
45729;DHT22;31439;53.512;10.206;2022-12-26T09:04:21;8.80;99.90
45729;DHT22;31439;53.512;10.206;2022-12-26T09:06:47;8.90;99.90
45729;DHT22;31439;53.512;10.206;2022-12-26T09:09:13;8.90;99.90
45729;DHT22;31439;53.512;10.206;2022-12-26T09:11:39;8.90;99.90
45729;DHT22;31439;53.512;10.206;2022-12-26T09:14:05;8.90;99.90
45729;DHT22;31439;53.512;10.206;2022-12-26T09:16:34;8.90;99.90
45729;DHT22;31439;53.512;10.206;2022-12-26T09:19:04;8.90;99.90
45729;DHT22;31439;53.512;10.206;2022-12-26T09:21:30;8.90;99.90
45729;DHT22;31439;53.512;10.206;2022-12-26T09:23:57;9.00;99.90
45729;DHT22;31439;53.512;10.206;2022-12-26T09:26:23;8.90;99.90
45729;DHT22;31439;53.512;10.206;2022-12-26T09:28:49;8.90;99.90
45729;DHT22;31439;53.512;10.206;2022-12-26T09:31:18;8.90;99.90
45729;DHT22;31439;53.512;10.206;2022-12-26T09:33:44;9.00;99.90
45729;DHT22;31439;53.512;10.206;2022-12-26T09:36:13;9.00;99.90
45729;DHT22;31439;53.512;10.206;2022-12-26T09:38:39;9.00;99.90
45729;DHT22;31439;53.512;10.206;2022-12-26T09:46:17;9.00;99.90
45729;DHT22;31439;53.512;10.206;2022-12-26T09:48:53;9.00;99.90
45729;DHT22;31439;53.512;10.206;2022-12-26T09:51:21;9.00;99.90
45729;DHT22;31439;53.512;10.206;2022-12-26T09:53:47;9.20;99.90
45729;DHT22;31439;53.512;10.206;2022-12-26T09:56:14;9.00;99.90
45729;DHT22;31439;53.512;10.206;2022-12-26T09:58:46;9.00;99.90
45729;DHT22;31439;53.512;10.206;2022-12-26T10:01:22;9.10;99.90
45729;DHT22;31439;53.512;10.206;2022-12-26T10:03:54;9.10;99.90
45729;DHT22;31439;53.512;10.206;2022-12-26T10:06:25;9.10;99.90
45729;DHT22;31439;53.512;10.206;2022-12-26T10:17:21;9.10;99.90
45729;DHT22;31439;53.512;10.206;2022-12-26T10:25:47;9.10;99.90
45729;DHT22;31439;53.512;10.206;2022-12-26T10:28:40;9.30;99.90
45729;DHT22;31439;53.512;10.206;2022-12-26T10:31:17;9.20;99.90
45729;DHT22;31439;53.512;10.206;2022-12-26T10:33:48;9.20;99.90
45729;DHT22;31439;53.512;10.206;2022-12-26T10:36:25;9.20;99.90
45729;DHT22;31439;53.512;10.206;2022-12-26T10:38:53;9.40;99.90
45729;DHT22;31439;53.512;10.206;2022-12-26T10:41:26;9.40;99.90
45729;DHT22;31439;53.512;10.206;2022-12-26T10:43:52;9.30;99.90
45729;DHT22;31439;53.512;10.206;2022-12-26T10:49:14;9.30;99.90
45729;DHT22;31439;53.512;10.206;2022-12-26T10:51:40;9.30;99.90
45729;DHT22;31439;53.512;10.206;2022-12-26T10:54:15;9.30;99.90
45729;DHT22;31439;53.512;10.206;2022-12-26T10:56:43;9.40;99.90
45729;DHT22;31439;53.512;10.206;2022-12-26T10:59:16;9.30;99.90
45729;DHT22;31439;53.512;10.206;2022-12-26T11:01:41;9.30;99.90
45729;DHT22;31439;53.512;10.206;2022-12-26T11:04:29;9.30;99.90
45729;DHT22;31439;53.512;10.206;2022-12-26T11:06:55;9.30;99.90
45729;DHT22;31439;53.512;10.206;2022-12-26T11:11:59;9.40;99.90
45729;DHT22;31439;53.512;10.206;2022-12-26T11:14:32;9.40;99.90
45729;DHT22;31439;53.512;10.206;2022-12-26T11:17:05;9.40;99.90
45729;DHT22;31439;53.512;10.206;2022-12-26T11:19:36;9.30;99.90
45729;DHT22;31439;53.512;10.206;2022-12-26T11:25:09;9.40;99.90
45729;DHT22;31439;53.512;10.206;2022-12-26T11:27:41;9.30;99.90
45729;DHT22;31439;53.512;10.206;2022-12-26T11:32:42;9.40;99.90
45729;DHT22;31439;53.512;10.206;2022-12-26T11:35:22;9.40;99.90
45729;DHT22;31439;53.512;10.206;2022-12-26T11:37:54;9.50;99.90
45729;DHT22;31439;53.512;10.206;2022-12-26T11:40:26;9.40;99.90
45729;DHT22;31439;53.512;10.206;2022-12-26T11:42:56;9.40;99.90
45729;DHT22;31439;53.512;10.206;2022-12-26T11:45:25;9.50;99.90
45729;DHT22;31439;53.512;10.206;2022-12-26T11:47:53;9.50;99.90
45729;DHT22;31439;53.512;10.206;2022-12-26T11:50:22;9.40;99.90
45729;DHT22;31439;53.512;10.206;2022-12-26T12:00:40;9.50;99.90
45729;DHT22;31439;53.512;10.206;2022-12-26T12:03:20;9.50;99.90
45729;DHT22;31439;53.512;10.206;2022-12-26T12:12:00;9.50;99.90
45729;DHT22;31439;53.512;10.206;2022-12-26T12:14:23;9.50;99.90
45729;DHT22;31439;53.512;10.206;2022-12-26T12:16:55;9.60;99.90
45729;DHT22;31439;53.512;10.206;2022-12-26T12:19:45;9.50;99.90
45729;DHT22;31439;53.512;10.206;2022-12-26T12:25:24;9.50;99.90
45729;DHT22;31439;53.512;10.206;2022-12-26T12:33:28;9.60;99.90
45729;DHT22;31439;53.512;10.206;2022-12-26T12:36:08;9.70;99.90
45729;DHT22;31439;53.512;10.206;2022-12-26T12:46:35;9.40;99.90
45729;DHT22;31439;53.512;10.206;2022-12-26T12:49:19;9.40;99.90
45729;DHT22;31439;53.512;10.206;2022-12-26T12:57:32;9.40;99.90
45729;DHT22;31439;53.512;10.206;2022-12-26T13:00:20;9.50;99.90
45729;DHT22;31439;53.512;10.206;2022-12-26T13:02:54;9.40;99.90
45729;DHT22;31439;53.512;10.206;2022-12-26T13:10:58;9.40;99.90
45729;DHT22;31439;53.512;10.206;2022-12-26T13:16:27;9.50;99.90
45729;DHT22;31439;53.512;10.206;2022-12-26T13:18:56;9.60;99.90
45729;DHT22;31439;53.512;10.206;2022-12-26T13:21:24;9.60;99.90
45729;DHT22;31439;53.512;10.206;2022-12-26T13:23:59;9.50;99.90
45729;DHT22;31439;53.512;10.206;2022-12-26T13:26:57;9.60;99.90
45729;DHT22;31439;53.512;10.206;2022-12-26T13:32:00;9.50;99.90
45729;DHT22;31439;53.512;10.206;2022-12-26T13:34:26;9.70;99.90
45729;DHT22;31439;53.512;10.206;2022-12-26T13:36:54;9.90;99.90
45729;DHT22;31439;53.512;10.206;2022-12-26T13:44:51;10.40;99.90
45729;DHT22;31439;53.512;10.206;2022-12-26T13:47:37;10.20;99.90
45729;DHT22;31439;53.512;10.206;2022-12-26T13:59:01;9.60;99.90
45729;DHT22;31439;53.512;10.206;2022-12-26T14:01:54;9.50;99.90
45729;DHT22;31439;53.512;10.206;2022-12-26T14:10:38;9.30;99.90
45729;DHT22;31439;53.512;10.206;2022-12-26T14:13:30;9.00;99.90
45729;DHT22;31439;53.512;10.206;2022-12-26T14:21:51;8.70;99.90
45729;DHT22;31439;53.512;10.206;2022-12-26T14:27:44;8.70;99.90
45729;DHT22;31439;53.512;10.206;2022-12-26T14:30:29;8.50;99.90
45729;DHT22;31439;53.512;10.206;2022-12-26T14:33:16;8.50;99.90
45729;DHT22;31439;53.512;10.206;2022-12-26T14:35:45;8.30;99.90
45729;DHT22;31439;53.512;10.206;2022-12-26T14:38:39;8.30;99.90
45729;DHT22;31439;53.512;10.206;2022-12-26T14:41:13;8.10;99.90
45729;DHT22;31439;53.512;10.206;2022-12-26T14:49:34;7.80;99.90
45729;DHT22;31439;53.512;10.206;2022-12-26T14:54:49;7.50;99.90
45729;DHT22;31439;53.512;10.206;2022-12-26T14:57:38;7.50;99.90
45729;DHT22;31439;53.512;10.206;2022-12-26T15:05:35;7.40;99.90
45729;DHT22;31439;53.512;10.206;2022-12-26T15:16:25;7.50;99.90
45729;DHT22;31439;53.512;10.206;2022-12-26T15:24:41;7.20;99.90
45729;DHT22;31439;53.512;10.206;2022-12-26T15:30:14;7.20;99.90
45729;DHT22;31439;53.512;10.206;2022-12-26T15:35:50;7.00;99.90
45729;DHT22;31439;53.512;10.206;2022-12-26T15:41:09;6.90;99.90
45729;DHT22;31439;53.512;10.206;2022-12-26T15:44:34;7.00;99.90
45729;DHT22;31439;53.512;10.206;2022-12-26T16:13:35;7.00;99.90
45729;DHT22;31439;53.512;10.206;2022-12-26T16:16:01;7.00;99.90
45729;DHT22;31439;53.512;10.206;2022-12-26T16:18:31;6.90;99.90
45729;DHT22;31439;53.512;10.206;2022-12-26T16:21:04;7.00;99.90
45729;DHT22;31439;53.512;10.206;2022-12-26T16:24:02;7.00;99.90
45729;DHT22;31439;53.512;10.206;2022-12-26T16:26:30;6.90;99.90
45729;DHT22;31439;53.512;10.206;2022-12-26T16:28:59;7.00;99.90
45729;DHT22;31439;53.512;10.206;2022-12-26T16:31:28;7.00;99.90
45729;DHT22;31439;53.512;10.206;2022-12-26T16:33:59;8.40;99.90
45729;DHT22;31439;53.512;10.206;2022-12-26T16:36:28;7.10;99.90
45729;DHT22;31439;53.512;10.206;2022-12-26T16:38:58;8.00;99.90
45729;DHT22;31439;53.512;10.206;2022-12-26T16:41:29;7.00;99.90
45729;DHT22;31439;53.512;10.206;2022-12-26T16:43:56;6.90;99.90
45729;DHT22;31439;53.512;10.206;2022-12-26T16:46:27;7.10;99.90
45729;DHT22;31439;53.512;10.206;2022-12-26T16:49:00;6.90;99.90
45729;DHT22;31439;53.512;10.206;2022-12-26T16:56:48;6.60;99.90
45729;DHT22;31439;53.512;10.206;2022-12-26T16:59:22;6.70;99.90
45729;DHT22;31439;53.512;10.206;2022-12-26T17:01:54;6.70;99.90
45729;DHT22;31439;53.512;10.206;2022-12-26T17:04:23;6.70;99.90
45729;DHT22;31439;53.512;10.206;2022-12-26T17:07:14;6.70;99.90
45729;DHT22;31439;53.512;10.206;2022-12-26T17:09:43;6.40;99.90
45729;DHT22;31439;53.512;10.206;2022-12-26T17:12:26;6.60;99.90
45729;DHT22;31439;53.512;10.206;2022-12-26T17:14:53;6.60;99.90
45729;DHT22;31439;53.512;10.206;2022-12-26T17:17:29;6.60;99.90
45729;DHT22;31439;53.512;10.206;2022-12-26T17:20:36;6.90;99.90
45729;DHT22;31439;53.512;10.206;2022-12-26T17:23:26;6.70;99.90
45729;DHT22;31439;53.512;10.206;2022-12-26T17:26:16;6.70;99.90
45729;DHT22;31439;53.512;10.206;2022-12-26T17:28:46;6.70;99.90
45729;DHT22;31439;53.512;10.206;2022-12-26T17:31:17;6.70;99.90
45729;DHT22;31439;53.512;10.206;2022-12-26T17:33:44;7.60;99.90
45729;DHT22;31439;53.512;10.206;2022-12-26T17:36:12;6.70;99.90
45729;DHT22;31439;53.512;10.206;2022-12-26T17:38:40;6.70;99.90
45729;DHT22;31439;53.512;10.206;2022-12-26T17:41:07;6.60;99.90
45729;DHT22;31439;53.512;10.206;2022-12-26T17:43:37;6.60;99.90
45729;DHT22;31439;53.512;10.206;2022-12-26T17:46:04;6.50;99.90
45729;DHT22;31439;53.512;10.206;2022-12-26T17:48:34;6.50;99.90
45729;DHT22;31439;53.512;10.206;2022-12-26T17:51:02;6.50;99.90
45729;DHT22;31439;53.512;10.206;2022-12-26T17:53:34;6.70;99.90
45729;DHT22;31439;53.512;10.206;2022-12-26T17:56:23;6.50;99.90
45729;DHT22;31439;53.512;10.206;2022-12-26T17:58:50;6.60;99.90
45729;DHT22;31439;53.512;10.206;2022-12-26T18:01:16;6.50;99.90
45729;DHT22;31439;53.512;10.206;2022-12-26T18:03:43;6.60;99.90
45729;DHT22;31439;53.512;10.206;2022-12-26T18:06:14;6.50;99.90
45729;DHT22;31439;53.512;10.206;2022-12-26T18:08:40;6.70;99.90
45729;DHT22;31439;53.512;10.206;2022-12-26T18:11:11;6.50;99.90
45729;DHT22;31439;53.512;10.206;2022-12-26T18:13:38;6.50;99.90
45729;DHT22;31439;53.512;10.206;2022-12-26T18:16:04;7.00;99.90
45729;DHT22;31439;53.512;10.206;2022-12-26T18:18:39;6.50;99.90
45729;DHT22;31439;53.512;10.206;2022-12-26T18:21:07;6.40;99.90
45729;DHT22;31439;53.512;10.206;2022-12-26T18:23:33;6.60;99.90
45729;DHT22;31439;53.512;10.206;2022-12-26T18:26:01;6.40;99.90
45729;DHT22;31439;53.512;10.206;2022-12-26T18:28:27;6.50;99.90
45729;DHT22;31439;53.512;10.206;2022-12-26T18:30:53;6.30;99.90
45729;DHT22;31439;53.512;10.206;2022-12-26T18:33:22;6.30;99.90
45729;DHT22;31439;53.512;10.206;2022-12-26T18:39:20;6.20;99.90
45729;DHT22;31439;53.512;10.206;2022-12-26T18:41:46;6.50;99.90
45729;DHT22;31439;53.512;10.206;2022-12-26T18:44:12;6.40;99.90
45729;DHT22;31439;53.512;10.206;2022-12-26T18:46:41;6.10;99.90
45729;DHT22;31439;53.512;10.206;2022-12-26T18:49:08;6.40;99.90
45729;DHT22;31439;53.512;10.206;2022-12-26T18:51:33;6.20;99.90
45729;DHT22;31439;53.512;10.206;2022-12-26T18:54:01;6.20;99.90
45729;DHT22;31439;53.512;10.206;2022-12-26T18:56:47;6.20;99.90
45729;DHT22;31439;53.512;10.206;2022-12-26T19:02:28;6.10;99.90
45729;DHT22;31439;53.512;10.206;2022-12-26T19:05:02;6.40;99.90
45729;DHT22;31439;53.512;10.206;2022-12-26T19:07:30;6.00;99.90
45729;DHT22;31439;53.512;10.206;2022-12-26T19:10:27;6.00;99.90
45729;DHT22;31439;53.512;10.206;2022-12-26T19:13:08;5.90;99.90
45729;DHT22;31439;53.512;10.206;2022-12-26T19:15:45;5.90;99.90
45729;DHT22;31439;53.512;10.206;2022-12-26T19:18:12;5.80;99.90
45729;DHT22;31439;53.512;10.206;2022-12-26T19:20:37;5.80;99.90
45729;DHT22;31439;53.512;10.206;2022-12-26T19:23:06;5.70;99.90
45729;DHT22;31439;53.512;10.206;2022-12-26T19:25:53;5.80;99.90
45729;DHT22;31439;53.512;10.206;2022-12-26T19:28:19;5.80;99.90
45729;DHT22;31439;53.512;10.206;2022-12-26T19:37:50;5.70;99.90
45729;DHT22;31439;53.512;10.206;2022-12-26T19:40:15;5.80;99.90
45729;DHT22;31439;53.512;10.206;2022-12-26T19:42:41;5.80;99.90
45729;DHT22;31439;53.512;10.206;2022-12-26T19:45:08;5.80;99.90
45729;DHT22;31439;53.512;10.206;2022-12-26T19:47:35;5.60;99.90
45729;DHT22;31439;53.512;10.206;2022-12-26T19:50:01;5.60;99.90